Beallsville, OH (43716)

2:49 PM EDT on August 21, 2014 (GMT -0400)
Jerusalem | Change Station
CLOSE
Current Station
Personal Weather Station
Location: Jerusalem, OH
Elevation: 1253 ft
Nearby Weather Stations

Elev 1253 ft 39.86 °N, 81.11 °W | Updated 9 seconds ago

Rain
Rain
71.4 °F
Feels Like 71.4 °F
N
7.4
Wind Variable Wind from SW
Gusts 9.0 mph

Today
High -- | Low -- °F
--% Chance of Precip.
Yesterday
High -- | Low -- °F
Precip. -- in
6:41 AM 8:11 PM
Waning Crescent, 13% visible
Pressure 30.06 in
Visibility 10.0 miles
Clouds Scattered Clouds 1700 ft
Mostly Cloudy 2300 ft
Mostly Cloudy 9000 ft
Dew Point 69 °F
Humidity 92%
Rainfall 0.02 in
Snow Depth Not available.
UV 5 out of 12
Pollen 9.30 out of 12
Air Quality Not available.
Flu Activity Not available.
METAR KHLG 211753Z 23009KT 10SM SCT017 BKN023 BKN090 23/20 A3008 RMK AO2 SLP180 T02330200 10244 20206 55003 $

More Conditions Fewer Conditions

Pressure 30.06 in
Visibility 10.0 miles
Clouds Scattered Clouds 1700 ft
Mostly Cloudy 2300 ft
Mostly Cloudy 9000 ft
Dew Point 69 °F
Humidity 92%
Rainfall 0.02 in
Snow Depth Not available.
UV 5 out of 12
Pollen 9.30 out of 12
Air Quality Not available.
Flu Activity Not available.
METAR KHLG 211753Z 23009KT 10SM SCT017 BKN023 BKN090 23/20 A3008 RMK AO2 SLP180 T02330200 10244 20206 55003 $

More Conditions Fewer Conditions

10-Day Weather Forecast

Almanac

Astronomy

Aug. 21, 2014 Rise Set
Actual Time 6:41 AM EDT 8:11 PM EDT
Civil Twilight 6:13 AM EDT 8:40 PM EDT
Nautical Twilight 5:38 AM EDT 9:14 PM EDT
Astronomical Twilight 5:02 AM EDT 9:50 PM EDT
Moon 3:10 AM EDT 5:39 PM EDT
Length of Visible Light 14h 27m
Length of Day
13h 30m
Tomorrow will be 2m 24s shorter.
Waning Crescent, 13% of the Moon is Illuminated
Today
Waning Crescent
Aug 25
New
Sep 2
First Quarter
Sep 8
Full
Sep 15
Last Quarter

Today's Extremes

State Highs State Lows

Community

WunderPhotos

Upload Photos

1,745,996 photos uploaded!

WunderBlogs® & News

Nearby

Snow Depth

Station Depth Elevation
No new snow has been reported.

Earthquake Activity

City Distance Mag. Time & Date
No recent earthquake activity has been reported nearby.
Minimum magnitude displayed is 2.5.

Coastal Water Temperatures

Place Temperature
No Stations Reporting

Nearby Weather Stations